createdAt,value
2023-03-07T00:04:11.010Z,11.52
2023-03-07T00:09:16.057Z,12.57
2023-03-07T00:14:20.871Z,11.52
2023-03-07T00:19:29.270Z,12.23
2023-03-07T00:24:34.728Z,12.48
2023-03-07T00:29:39.523Z,14.45
2023-03-07T00:34:46.882Z,11.73
2023-03-07T00:39:51.693Z,12.85
2023-03-07T00:44:56.401Z,10.07
2023-03-07T00:50:04.517Z,11.02
2023-03-07T00:55:09.943Z,9.05
2023-03-07T01:00:15.543Z,7.88
2023-03-07T01:05:22.990Z,6.65
2023-03-07T01:10:29.483Z,7.13
2023-03-07T01:15:34.500Z,7.53
2023-03-07T01:20:42.771Z,7.85
2023-03-07T01:25:47.522Z,7.30
2023-03-07T01:31:00.109Z,8.27
2023-03-07T01:36:08.049Z,11.82
2023-03-07T01:41:13.144Z,15.38
2023-03-07T01:46:27.733Z,12.82
2023-03-07T01:51:35.860Z,12.27
2023-03-07T01:56:41.079Z,11.77
2023-03-07T02:01:45.800Z,11.38
2023-03-07T02:06:53.158Z,11.70
2023-03-07T02:12:00.854Z,11.25
2023-03-07T02:17:05.831Z,12.75
2023-03-07T02:22:15.198Z,14.07
2023-03-07T02:27:22.533Z,12.23
2023-03-07T02:32:27.323Z,10.95
2023-03-07T02:37:34.558Z,9.40
2023-03-07T02:42:43.854Z,10.38
2023-03-07T02:47:49.158Z,11.27
2023-03-07T02:52:53.991Z,8.95
2023-03-07T02:58:01.450Z,9.30
2023-03-07T03:03:06.206Z,9.90
2023-03-07T03:08:10.928Z,11.88
2023-03-07T03:13:18.199Z,11.40
2023-03-07T03:18:23.116Z,8.48
2023-03-07T03:23:30.110Z,8.30
2023-03-07T03:28:37.942Z,8.20
2023-03-07T03:33:44.456Z,8.77
2023-03-07T03:38:50.219Z,12.45
2023-03-07T03:43:57.775Z,12.90
2023-03-07T03:49:02.423Z,13.75
2023-03-07T03:54:07.285Z,10.10
2023-03-07T03:59:14.849Z,10.73
2023-03-07T04:04:19.615Z,11.80
2023-03-07T04:09:24.423Z,12.07
2023-03-07T04:14:31.786Z,10.68
2023-03-07T04:19:36.599Z,9.95
2023-03-07T04:24:41.443Z,9.63
2023-03-07T04:29:48.845Z,9.93
2023-03-07T04:34:53.663Z,10.18
2023-03-07T04:39:58.492Z,12.95
2023-03-07T04:45:05.933Z,10.98
2023-03-07T04:50:11.772Z,10.75
2023-03-07T04:55:16.417Z,14.30
2023-03-07T05:00:24.121Z,15.73
2023-03-07T05:05:28.736Z,16.63
2023-03-07T05:10:33.366Z,14.85
2023-03-07T05:15:40.707Z,18.10
2023-03-07T05:20:46.113Z,21.20
2023-03-07T05:25:50.755Z,14.77
2023-03-07T05:30:58.159Z,11.43
2023-03-07T05:36:03.985Z,12.57
2023-03-07T05:41:08.687Z,29.08
2023-03-07T05:46:15.992Z,26.05
2023-03-07T05:51:20.751Z,25.30
2023-03-07T05:56:25.536Z,23.17
2023-03-07T06:01:33.007Z,25.67
2023-03-07T06:06:37.751Z,46.03
2023-03-07T06:11:42.538Z,72.80
2023-03-07T06:16:50.232Z,36.85
2023-03-07T06:21:55.420Z,61.67
2023-03-07T06:27:00.195Z,32.13
2023-03-07T06:32:08.546Z,32.00
2023-03-07T06:37:13.435Z,30.95
2023-03-07T06:42:18.276Z,32.47
2023-03-07T06:47:26.411Z,51.55
2023-03-07T06:52:31.188Z,28.38
2023-03-07T06:57:35.909Z,15.55
2023-03-07T07:02:43.274Z,15.85
2023-03-07T07:07:48.017Z,16.58
2023-03-07T07:12:54.938Z,14.90
2023-03-07T07:18:02.467Z,21.67
2023-03-07T07:23:09.039Z,26.92
2023-03-07T07:28:14.145Z,18.40
2023-03-07T07:33:21.872Z,25.35
2023-03-07T07:38:26.865Z,83.72
2023-03-07T07:43:32.509Z,36.80
2023-03-07T07:48:39.870Z,32.13
2023-03-07T07:53:45.064Z,13.25
2023-03-07T07:58:50.413Z,13.35
2023-03-07T08:03:57.798Z,16.98
2023-03-07T08:09:03.432Z,16.63
2023-03-07T08:14:08.190Z,26.33
2023-03-07T08:19:15.535Z,13.25
2023-03-07T08:24:32.042Z,19.70
2023-03-07T08:29:43.356Z,15.68
2023-03-07T08:34:50.891Z,19.35
2023-03-07T08:39:55.781Z,17.90
2023-03-07T08:45:00.592Z,14.90
2023-03-07T08:50:08.350Z,24.38
2023-03-07T08:55:13.429Z,23.48
2023-03-07T09:00:18.669Z,17.30
2023-03-07T09:05:26.098Z,23.17
2023-03-07T09:10:31.044Z,14.90
2023-03-07T09:15:35.823Z,12.77
2023-03-07T09:20:43.225Z,14.77
2023-03-07T09:25:47.956Z,18.00
2023-03-07T09:30:53.096Z,12.95
2023-03-07T09:36:00.360Z,11.65
2023-03-07T09:41:08.803Z,8.90
2023-03-07T09:46:17.354Z,9.48
2023-03-07T09:51:28.754Z,10.50
2023-03-07T09:56:34.505Z,10.00
2023-03-07T10:01:41.024Z,12.60
2023-03-07T10:06:51.738Z,12.80
2023-03-07T10:12:05.416Z,11.35
2023-03-07T10:17:15.869Z,7.70
2023-03-07T10:22:27.598Z,7.53
2023-03-07T10:27:33.370Z,7.38
2023-03-07T10:32:40.676Z,8.10
2023-03-07T10:37:50.646Z,7.32
2023-03-07T10:42:55.975Z,7.65
2023-03-07T10:48:01.588Z,6.80
2023-03-07T10:53:12.507Z,19.65
2023-03-07T10:58:20.320Z,8.65
2023-03-07T11:03:49.668Z,6.28
2023-03-07T11:08:59.187Z,6.68
2023-03-07T11:14:18.725Z,7.38
2023-03-07T11:19:45.853Z,11.90
2023-03-07T11:24:55.192Z,7.72
2023-03-07T11:30:10.299Z,7.43
2023-03-07T11:35:19.209Z,6.35
2023-03-07T11:40:29.811Z,14.35
2023-03-07T11:45:36.626Z,6.60
2023-03-07T11:50:42.796Z,6.53
2023-03-07T11:55:53.965Z,6.85
2023-03-07T12:01:12.081Z,9.07
2023-03-07T12:06:31.037Z,15.20
2023-03-07T12:11:44.555Z,6.57
2023-03-07T12:22:30.048Z,9.70
2023-03-07T12:27:40.358Z,6.15
2023-03-07T12:32:45.424Z,5.80
2023-03-07T12:37:53.524Z,6.25
2023-03-07T12:43:03.440Z,5.60
2023-03-07T12:48:12.121Z,6.10
2023-03-07T12:53:22.735Z,5.95
2023-03-07T12:58:37.790Z,5.75
2023-03-07T13:03:44.636Z,6.28
2023-03-07T13:08:51.302Z,5.60
2023-03-07T13:14:03.219Z,6.47
2023-03-07T13:19:22.840Z,5.40
2023-03-07T13:24:45.447Z,6.38
2023-03-07T13:30:05.543Z,6.28
2023-03-07T13:35:13.451Z,6.85
2023-03-07T13:40:38.980Z,6.30
2023-03-07T13:45:50.935Z,8.43
2023-03-07T13:51:12.901Z,7.22
2023-03-07T14:02:00.719Z,8.15
2023-03-07T14:18:15.669Z,8.85
2023-03-07T14:29:01.319Z,8.10
2023-03-07T14:34:20.971Z,8.10
2023-03-07T14:45:17.292Z,8.30
2023-03-07T14:50:23.633Z,10.02
2023-03-07T15:18:37.514Z,8.20
2023-03-07T15:29:15.102Z,7.88
2023-03-07T15:40:28.303Z,10.13
2023-03-07T15:51:17.657Z,7.57
2023-03-07T15:56:25.947Z,7.43
2023-03-07T16:01:30.823Z,14.43
2023-03-07T16:06:42.190Z,21.73
2023-03-07T16:11:47.421Z,8.70
2023-03-07T16:16:52.593Z,9.75
2023-03-07T16:22:01.124Z,10.55
2023-03-07T16:27:06.010Z,10.65
2023-03-07T16:32:12.745Z,11.55
2023-03-07T16:37:21.047Z,9.60
2023-03-07T16:42:26.196Z,14.63
2023-03-07T16:47:31.468Z,11.48
2023-03-07T16:52:39.041Z,17.60
2023-03-07T16:57:45.473Z,17.10
2023-03-07T17:02:50.907Z,13.68
2023-03-07T17:07:59.035Z,24.63
2023-03-07T17:13:04.465Z,19.58
2023-03-07T17:18:09.340Z,11.55
2023-03-07T17:23:16.653Z,11.50
2023-03-07T17:28:21.548Z,11.18
2023-03-07T17:33:27.110Z,11.20
2023-03-07T17:38:35.323Z,12.07
2023-03-07T17:43:40.942Z,11.32
2023-03-07T17:48:45.774Z,11.32
2023-03-07T17:53:53.777Z,12.82
2023-03-07T17:59:02.666Z,15.23
2023-03-07T18:04:08.439Z,15.18
2023-03-07T18:09:16.884Z,15.25
2023-03-07T18:14:21.905Z,14.00
2023-03-07T18:19:27.504Z,11.55
2023-03-07T18:24:36.779Z,10.85
2023-03-07T18:29:42.912Z,11.07
2023-03-07T18:34:47.587Z,11.35
2023-03-07T18:39:55.300Z,10.60
2023-03-07T18:45:00.134Z,13.13
2023-03-07T18:50:05.494Z,12.07
2023-03-07T18:55:13.395Z,9.98
2023-03-07T19:00:18.514Z,10.77
2023-03-07T19:05:23.764Z,9.68
2023-03-07T19:10:31.134Z,10.13
2023-03-07T19:15:36.497Z,12.57
2023-03-07T19:20:43.752Z,16.25
2023-03-07T19:25:51.285Z,16.35
2023-03-07T19:30:56.015Z,23.88
2023-03-07T19:36:04.431Z,19.23
2023-03-07T19:41:14.232Z,18.88
2023-03-07T19:46:21.664Z,19.45
2023-03-07T19:51:27.311Z,19.08
2023-03-07T19:56:35.597Z,19.10
2023-03-07T20:01:40.575Z,20.40
2023-03-07T20:06:45.944Z,25.40
2023-03-07T20:11:53.402Z,27.60
2023-03-07T20:16:58.261Z,32.42
2023-03-07T20:22:03.095Z,40.28
2023-03-07T20:27:11.718Z,28.58
2023-03-07T20:32:16.441Z,24.48
2023-03-07T20:37:21.440Z,19.40
2023-03-07T20:42:29.012Z,18.80
2023-03-07T20:47:36.639Z,17.52
2023-03-07T20:52:41.345Z,20.50
2023-03-07T20:57:48.777Z,25.67
2023-03-07T21:03:05.224Z,18.77
2023-03-07T21:08:10.267Z,16.20
2023-03-07T21:13:17.795Z,16.23
2023-03-07T21:18:22.483Z,19.13
2023-03-07T21:23:27.222Z,17.50
2023-03-07T21:28:37.144Z,18.90
2023-03-07T21:33:43.213Z,20.50
2023-03-07T21:38:48.803Z,19.60
2023-03-07T21:43:56.720Z,18.92
2023-03-07T21:49:01.830Z,19.85
2023-03-07T21:54:06.712Z,19.40
2023-03-07T21:59:14.128Z,21.02
2023-03-07T22:04:19.650Z,17.48
2023-03-07T22:09:24.675Z,18.05
2023-03-07T22:14:32.080Z,16.20
2023-03-07T22:19:36.928Z,15.80
2023-03-07T22:24:41.590Z,14.27
2023-03-07T22:29:49.536Z,14.23
2023-03-07T22:34:54.412Z,14.00
2023-03-07T22:40:00.350Z,15.13
2023-03-07T22:45:08.104Z,16.70
2023-03-07T22:50:13.608Z,17.90
2023-03-07T22:55:18.580Z,18.77
2023-03-07T23:00:26.230Z,17.02
2023-03-07T23:05:31.131Z,23.33
2023-03-07T23:10:36.062Z,18.95
2023-03-07T23:15:45.143Z,18.33
2023-03-07T23:20:50.356Z,18.77
2023-03-07T23:25:55.138Z,18.73
2023-03-07T23:31:02.722Z,20.75
2023-03-07T23:36:08.184Z,16.02
2023-03-07T23:41:13.210Z,12.82
2023-03-07T23:46:20.616Z,14.80
2023-03-07T23:51:26.882Z,11.32
2023-03-07T23:56:31.787Z,12.20
